sensor_id;sensor_type;location;lat;lon;timestamp;P1;durP1;ratioP1;P2;durP2;ratioP2
45905;SDS011;31619;49.008;12.106;2022-11-20T00:00:40;27.07;;;19.83;;
45905;SDS011;31619;49.008;12.106;2022-11-20T00:03:05;28.43;;;20.53;;
45905;SDS011;31619;49.008;12.106;2022-11-20T00:05:34;26.97;;;19.77;;
45905;SDS011;31619;49.008;12.106;2022-11-20T00:07:59;26.87;;;20.47;;
45905;SDS011;31619;49.008;12.106;2022-11-20T00:10:25;28.67;;;20.50;;
45905;SDS011;31619;49.008;12.106;2022-11-20T00:12:51;29.33;;;20.23;;
45905;SDS011;31619;49.008;12.106;2022-11-20T00:15:17;27.00;;;20.00;;
45905;SDS011;31619;49.008;12.106;2022-11-20T00:17:42;29.43;;;21.03;;
45905;SDS011;31619;49.008;12.106;2022-11-20T00:20:08;29.30;;;21.97;;
45905;SDS011;31619;49.008;12.106;2022-11-20T00:22:34;30.80;;;21.60;;
45905;SDS011;31619;49.008;12.106;2022-11-20T00:25:00;31.07;;;22.03;;
45905;SDS011;31619;49.008;12.106;2022-11-20T00:27:25;29.60;;;20.53;;
45905;SDS011;31619;49.008;12.106;2022-11-20T00:29:51;25.83;;;19.00;;
45905;SDS011;31619;49.008;12.106;2022-11-20T00:32:16;28.90;;;21.37;;
45905;SDS011;31619;49.008;12.106;2022-11-20T00:34:42;30.93;;;21.77;;
45905;SDS011;31619;49.008;12.106;2022-11-20T00:37:08;26.30;;;19.80;;
45905;SDS011;31619;49.008;12.106;2022-11-20T00:39:33;31.70;;;20.87;;
45905;SDS011;31619;49.008;12.106;2022-11-20T00:41:59;30.20;;;22.00;;
45905;SDS011;31619;49.008;12.106;2022-11-20T00:44:24;26.03;;;18.47;;
45905;SDS011;31619;49.008;12.106;2022-11-20T00:46:50;27.80;;;20.60;;
45905;SDS011;31619;49.008;12.106;2022-11-20T00:49:15;28.37;;;19.93;;
45905;SDS011;31619;49.008;12.106;2022-11-20T00:51:41;29.30;;;20.63;;
45905;SDS011;31619;49.008;12.106;2022-11-20T00:54:07;30.00;;;21.70;;
45905;SDS011;31619;49.008;12.106;2022-11-20T00:56:32;26.30;;;19.47;;
45905;SDS011;31619;49.008;12.106;2022-11-20T00:58:59;29.60;;;20.83;;
45905;SDS011;31619;49.008;12.106;2022-11-20T01:01:26;26.63;;;19.30;;
45905;SDS011;31619;49.008;12.106;2022-11-20T01:03:54;27.57;;;20.10;;
45905;SDS011;31619;49.008;12.106;2022-11-20T01:08:47;27.67;;;20.60;;
45905;SDS011;31619;49.008;12.106;2022-11-20T01:11:15;26.23;;;18.70;;
45905;SDS011;31619;49.008;12.106;2022-11-20T01:13:46;26.90;;;20.17;;
45905;SDS011;31619;49.008;12.106;2022-11-20T01:16:17;27.27;;;20.33;;
45905;SDS011;31619;49.008;12.106;2022-11-20T01:18:46;27.40;;;19.70;;
45905;SDS011;31619;49.008;12.106;2022-11-20T01:21:14;25.53;;;19.87;;
45905;SDS011;31619;49.008;12.106;2022-11-20T01:23:44;27.53;;;18.97;;
45905;SDS011;31619;49.008;12.106;2022-11-20T01:26:18;25.47;;;18.57;;
45905;SDS011;31619;49.008;12.106;2022-11-20T01:28:45;25.55;;;19.88;;
45905;SDS011;31619;49.008;12.106;2022-11-20T01:31:12;25.20;;;19.70;;
45905;SDS011;31619;49.008;12.106;2022-11-20T01:33:39;24.73;;;18.65;;
45905;SDS011;31619;49.008;12.106;2022-11-20T01:36:06;23.58;;;17.98;;
45905;SDS011;31619;49.008;12.106;2022-11-20T01:38:32;25.90;;;18.52;;
45905;SDS011;31619;49.008;12.106;2022-11-20T01:40:58;24.13;;;17.47;;
45905;SDS011;31619;49.008;12.106;2022-11-20T01:43:24;23.33;;;17.67;;
45905;SDS011;31619;49.008;12.106;2022-11-20T01:46:01;26.40;;;18.65;;
45905;SDS011;31619;49.008;12.106;2022-11-20T01:48:54;26.60;;;18.60;;
45905;SDS011;31619;49.008;12.106;2022-11-20T01:54:06;23.30;;;17.87;;
45905;SDS011;31619;49.008;12.106;2022-11-20T01:56:43;22.92;;;17.38;;
45905;SDS011;31619;49.008;12.106;2022-11-20T01:59:10;24.27;;;18.63;;
45905;SDS011;31619;49.008;12.106;2022-11-20T02:01:40;24.97;;;18.17;;
45905;SDS011;31619;49.008;12.106;2022-11-20T02:04:06;27.23;;;20.20;;
45905;SDS011;31619;49.008;12.106;2022-11-20T02:06:43;28.33;;;20.13;;
45905;SDS011;31619;49.008;12.106;2022-11-20T02:09:13;25.45;;;18.92;;
45905;SDS011;31619;49.008;12.106;2022-11-20T02:11:39;24.33;;;18.10;;
45905;SDS011;31619;49.008;12.106;2022-11-20T02:14:05;27.58;;;19.42;;
45905;SDS011;31619;49.008;12.106;2022-11-20T02:16:33;24.97;;;18.43;;
45905;SDS011;31619;49.008;12.106;2022-11-20T02:19:02;28.30;;;20.42;;
45905;SDS011;31619;49.008;12.106;2022-11-20T02:21:42;26.40;;;18.67;;
45905;SDS011;31619;49.008;12.106;2022-11-20T02:26:41;24.43;;;17.63;;
45905;SDS011;31619;49.008;12.106;2022-11-20T02:29:08;24.92;;;18.35;;
45905;SDS011;31619;49.008;12.106;2022-11-20T02:31:38;26.23;;;18.27;;
45905;SDS011;31619;49.008;12.106;2022-11-20T02:34:06;26.30;;;20.55;;
45905;SDS011;31619;49.008;12.106;2022-11-20T02:36:32;26.23;;;19.02;;
45905;SDS011;31619;49.008;12.106;2022-11-20T02:39:00;21.45;;;17.63;;
45905;SDS011;31619;49.008;12.106;2022-11-20T02:41:30;22.95;;;17.88;;
45905;SDS011;31619;49.008;12.106;2022-11-20T02:43:57;24.17;;;18.08;;
45905;SDS011;31619;49.008;12.106;2022-11-20T02:46:23;24.23;;;18.60;;
45905;SDS011;31619;49.008;12.106;2022-11-20T02:48:49;19.60;;;15.95;;
45905;SDS011;31619;49.008;12.106;2022-11-20T02:51:15;24.65;;;18.05;;
45905;SDS011;31619;49.008;12.106;2022-11-20T02:53:40;26.52;;;19.65;;
45905;SDS011;31619;49.008;12.106;2022-11-20T02:56:06;25.98;;;19.42;;
45905;SDS011;31619;49.008;12.106;2022-11-20T02:58:32;23.17;;;17.42;;
45905;SDS011;31619;49.008;12.106;2022-11-20T03:00:57;27.90;;;18.90;;
45905;SDS011;31619;49.008;12.106;2022-11-20T03:03:23;25.67;;;19.63;;
45905;SDS011;31619;49.008;12.106;2022-11-20T03:05:49;23.33;;;17.52;;
45905;SDS011;31619;49.008;12.106;2022-11-20T03:08:14;26.48;;;19.35;;
45905;SDS011;31619;49.008;12.106;2022-11-20T03:10:40;26.80;;;19.33;;
45905;SDS011;31619;49.008;12.106;2022-11-20T03:13:05;25.75;;;18.58;;
45905;SDS011;31619;49.008;12.106;2022-11-20T03:15:31;24.08;;;19.02;;
45905;SDS011;31619;49.008;12.106;2022-11-20T03:17:56;25.52;;;19.13;;
45905;SDS011;31619;49.008;12.106;2022-11-20T03:20:22;25.60;;;18.83;;
45905;SDS011;31619;49.008;12.106;2022-11-20T03:22:48;23.37;;;17.40;;
45905;SDS011;31619;49.008;12.106;2022-11-20T03:25:14;27.77;;;19.83;;
45905;SDS011;31619;49.008;12.106;2022-11-20T03:27:40;25.80;;;18.48;;
45905;SDS011;31619;49.008;12.106;2022-11-20T03:30:05;25.47;;;19.27;;
45905;SDS011;31619;49.008;12.106;2022-11-20T03:32:32;25.57;;;18.80;;
45905;SDS011;31619;49.008;12.106;2022-11-20T03:34:57;26.35;;;20.27;;
45905;SDS011;31619;49.008;12.106;2022-11-20T03:37:23;27.40;;;18.27;;
45905;SDS011;31619;49.008;12.106;2022-11-20T03:39:48;27.13;;;20.37;;
45905;SDS011;31619;49.008;12.106;2022-11-20T03:42:14;25.60;;;19.80;;
45905;SDS011;31619;49.008;12.106;2022-11-20T03:44:58;29.60;;;20.97;;
45905;SDS011;31619;49.008;12.106;2022-11-20T03:47:24;27.97;;;20.97;;
45905;SDS011;31619;49.008;12.106;2022-11-20T03:49:49;28.77;;;18.90;;
45905;SDS011;31619;49.008;12.106;2022-11-20T03:52:15;29.43;;;20.83;;
45905;SDS011;31619;49.008;12.106;2022-11-20T03:54:40;27.20;;;19.67;;
45905;SDS011;31619;49.008;12.106;2022-11-20T03:57:06;29.87;;;20.67;;
45905;SDS011;31619;49.008;12.106;2022-11-20T03:59:31;28.87;;;20.07;;
45905;SDS011;31619;49.008;12.106;2022-11-20T04:01:57;29.80;;;20.03;;
45905;SDS011;31619;49.008;12.106;2022-11-20T04:04:23;30.23;;;20.47;;
45905;SDS011;31619;49.008;12.106;2022-11-20T04:06:48;27.30;;;18.97;;
45905;SDS011;31619;49.008;12.106;2022-11-20T04:09:14;25.38;;;17.98;;
45905;SDS011;31619;49.008;12.106;2022-11-20T04:11:40;26.97;;;19.13;;
45905;SDS011;31619;49.008;12.106;2022-11-20T04:14:11;28.83;;;19.93;;
45905;SDS011;31619;49.008;12.106;2022-11-20T04:16:38;27.57;;;20.30;;
45905;SDS011;31619;49.008;12.106;2022-11-20T04:19:05;27.63;;;19.90;;
45905;SDS011;31619;49.008;12.106;2022-11-20T04:21:34;27.73;;;17.80;;
45905;SDS011;31619;49.008;12.106;2022-11-20T04:23:59;28.63;;;19.50;;
45905;SDS011;31619;49.008;12.106;2022-11-20T04:26:26;30.53;;;20.30;;
45905;SDS011;31619;49.008;12.106;2022-11-20T04:28:53;26.97;;;19.97;;
45905;SDS011;31619;49.008;12.106;2022-11-20T04:31:20;24.13;;;18.00;;
45905;SDS011;31619;49.008;12.106;2022-11-20T04:33:50;24.17;;;18.07;;
45905;SDS011;31619;49.008;12.106;2022-11-20T04:38:43;27.03;;;19.47;;
45905;SDS011;31619;49.008;12.106;2022-11-20T04:41:12;27.93;;;19.40;;
45905;SDS011;31619;49.008;12.106;2022-11-20T04:43:40;27.48;;;19.77;;
45905;SDS011;31619;49.008;12.106;2022-11-20T04:46:06;24.50;;;18.13;;
45905;SDS011;31619;49.008;12.106;2022-11-20T04:48:31;24.20;;;18.47;;
45905;SDS011;31619;49.008;12.106;2022-11-20T04:50:57;26.70;;;19.43;;
45905;SDS011;31619;49.008;12.106;2022-11-20T04:53:27;26.77;;;18.83;;
45905;SDS011;31619;49.008;12.106;2022-11-20T04:55:58;27.23;;;19.37;;
45905;SDS011;31619;49.008;12.106;2022-11-20T04:58:25;29.90;;;20.13;;
45905;SDS011;31619;49.008;12.106;2022-11-20T05:00:50;29.33;;;21.07;;
45905;SDS011;31619;49.008;12.106;2022-11-20T05:03:16;27.00;;;19.83;;
45905;SDS011;31619;49.008;12.106;2022-11-20T05:05:42;29.13;;;18.83;;
45905;SDS011;31619;49.008;12.106;2022-11-20T05:08:07;29.40;;;21.00;;
45905;SDS011;31619;49.008;12.106;2022-11-20T05:10:33;29.30;;;20.73;;
45905;SDS011;31619;49.008;12.106;2022-11-20T05:12:58;28.93;;;20.53;;
45905;SDS011;31619;49.008;12.106;2022-11-20T05:15:24;29.87;;;20.10;;
45905;SDS011;31619;49.008;12.106;2022-11-20T05:17:50;32.53;;;21.77;;
45905;SDS011;31619;49.008;12.106;2022-11-20T05:20:17;30.77;;;20.20;;
45905;SDS011;31619;49.008;12.106;2022-11-20T05:22:43;28.23;;;20.80;;
45905;SDS011;31619;49.008;12.106;2022-11-20T05:25:09;28.00;;;20.50;;
45905;SDS011;31619;49.008;12.106;2022-11-20T05:27:35;27.70;;;19.83;;
45905;SDS011;31619;49.008;12.106;2022-11-20T05:30:02;29.30;;;20.73;;
45905;SDS011;31619;49.008;12.106;2022-11-20T05:32:28;29.03;;;19.63;;
45905;SDS011;31619;49.008;12.106;2022-11-20T05:34:54;26.43;;;19.27;;
45905;SDS011;31619;49.008;12.106;2022-11-20T05:37:19;28.00;;;20.10;;
45905;SDS011;31619;49.008;12.106;2022-11-20T05:39:45;29.53;;;19.70;;
45905;SDS011;31619;49.008;12.106;2022-11-20T05:42:10;27.07;;;19.63;;
45905;SDS011;31619;49.008;12.106;2022-11-20T05:44:55;30.97;;;20.10;;
45905;SDS011;31619;49.008;12.106;2022-11-20T05:47:21;27.40;;;19.17;;
45905;SDS011;31619;49.008;12.106;2022-11-20T05:49:46;25.30;;;19.70;;
45905;SDS011;31619;49.008;12.106;2022-11-20T05:52:12;25.97;;;20.03;;
45905;SDS011;31619;49.008;12.106;2022-11-20T05:54:37;30.20;;;20.73;;
45905;SDS011;31619;49.008;12.106;2022-11-20T05:57:03;29.53;;;20.03;;
45905;SDS011;31619;49.008;12.106;2022-11-20T05:59:29;29.33;;;19.80;;
45905;SDS011;31619;49.008;12.106;2022-11-20T06:01:54;31.23;;;21.80;;
45905;SDS011;31619;49.008;12.106;2022-11-20T06:04:20;28.70;;;20.45;;
45905;SDS011;31619;49.008;12.106;2022-11-20T06:06:45;29.85;;;19.85;;
45905;SDS011;31619;49.008;12.106;2022-11-20T06:09:11;29.42;;;19.75;;
45905;SDS011;31619;49.008;12.106;2022-11-20T06:11:36;29.48;;;20.90;;
45905;SDS011;31619;49.008;12.106;2022-11-20T06:14:02;27.92;;;19.42;;
45905;SDS011;31619;49.008;12.106;2022-11-20T06:16:28;24.92;;;18.40;;
45905;SDS011;31619;49.008;12.106;2022-11-20T06:18:53;30.13;;;20.80;;
45905;SDS011;31619;49.008;12.106;2022-11-20T06:21:20;30.80;;;20.63;;
45905;SDS011;31619;49.008;12.106;2022-11-20T06:23:47;29.63;;;20.92;;
45905;SDS011;31619;49.008;12.106;2022-11-20T06:26:24;31.75;;;22.02;;
45905;SDS011;31619;49.008;12.106;2022-11-20T06:28:51;28.63;;;20.17;;
45905;SDS011;31619;49.008;12.106;2022-11-20T06:31:18;31.45;;;21.35;;
45905;SDS011;31619;49.008;12.106;2022-11-20T06:33:45;30.55;;;20.23;;
45905;SDS011;31619;49.008;12.106;2022-11-20T06:36:12;29.42;;;20.00;;
45905;SDS011;31619;49.008;12.106;2022-11-20T06:38:39;28.63;;;21.02;;
45905;SDS011;31619;49.008;12.106;2022-11-20T06:41:05;32.97;;;21.83;;
45905;SDS011;31619;49.008;12.106;2022-11-20T06:43:34;26.98;;;20.02;;
45905;SDS011;31619;49.008;12.106;2022-11-20T06:46:00;29.23;;;21.52;;
45905;SDS011;31619;49.008;12.106;2022-11-20T06:48:26;31.90;;;20.77;;
45905;SDS011;31619;49.008;12.106;2022-11-20T06:50:52;29.05;;;19.65;;
45905;SDS011;31619;49.008;12.106;2022-11-20T06:53:18;28.90;;;20.02;;
45905;SDS011;31619;49.008;12.106;2022-11-20T06:55:44;27.23;;;19.17;;
45905;SDS011;31619;49.008;12.106;2022-11-20T06:58:11;31.30;;;22.50;;
45905;SDS011;31619;49.008;12.106;2022-11-20T07:00:37;29.02;;;20.95;;
45905;SDS011;31619;49.008;12.106;2022-11-20T07:03:06;32.50;;;22.13;;
45905;SDS011;31619;49.008;12.106;2022-11-20T07:05:34;31.10;;;21.67;;
45905;SDS011;31619;49.008;12.106;2022-11-20T07:08:01;33.33;;;21.70;;
45905;SDS011;31619;49.008;12.106;2022-11-20T07:10:27;32.60;;;23.75;;
45905;SDS011;31619;49.008;12.106;2022-11-20T07:12:53;31.52;;;21.60;;
45905;SDS011;31619;49.008;12.106;2022-11-20T07:15:19;27.70;;;20.08;;
45905;SDS011;31619;49.008;12.106;2022-11-20T07:17:46;29.92;;;19.75;;
45905;SDS011;31619;49.008;12.106;2022-11-20T07:20:12;29.60;;;20.88;;
45905;SDS011;31619;49.008;12.106;2022-11-20T07:22:38;28.67;;;22.02;;
45905;SDS011;31619;49.008;12.106;2022-11-20T07:25:04;27.90;;;20.88;;
45905;SDS011;31619;49.008;12.106;2022-11-20T07:27:30;32.80;;;20.52;;
45905;SDS011;31619;49.008;12.106;2022-11-20T07:29:56;30.70;;;21.70;;
45905;SDS011;31619;49.008;12.106;2022-11-20T07:32:22;27.65;;;20.17;;
45905;SDS011;31619;49.008;12.106;2022-11-20T07:34:48;28.65;;;19.10;;
45905;SDS011;31619;49.008;12.106;2022-11-20T07:37:14;28.13;;;20.10;;
45905;SDS011;31619;49.008;12.106;2022-11-20T07:39:40;29.42;;;20.20;;
45905;SDS011;31619;49.008;12.106;2022-11-20T07:42:06;28.10;;;20.27;;
45905;SDS011;31619;49.008;12.106;2022-11-20T07:44:32;24.95;;;19.13;;
45905;SDS011;31619;49.008;12.106;2022-11-20T07:46:57;27.73;;;19.15;;
45905;SDS011;31619;49.008;12.106;2022-11-20T07:49:23;25.20;;;18.58;;
45905;SDS011;31619;49.008;12.106;2022-11-20T07:51:51;26.92;;;18.60;;
45905;SDS011;31619;49.008;12.106;2022-11-20T07:54:20;24.70;;;18.73;;
45905;SDS011;31619;49.008;12.106;2022-11-20T07:56:47;27.48;;;19.83;;
45905;SDS011;31619;49.008;12.106;2022-11-20T07:59:14;24.50;;;18.63;;
45905;SDS011;31619;49.008;12.106;2022-11-20T08:01:40;25.63;;;18.33;;
45905;SDS011;31619;49.008;12.106;2022-11-20T08:04:07;24.77;;;18.63;;
45905;SDS011;31619;49.008;12.106;2022-11-20T08:06:32;21.73;;;16.85;;
45905;SDS011;31619;49.008;12.106;2022-11-20T08:08:58;25.05;;;19.45;;
45905;SDS011;31619;49.008;12.106;2022-11-20T08:11:24;23.85;;;18.10;;
45905;SDS011;31619;49.008;12.106;2022-11-20T08:14:08;19.98;;;16.70;;
45905;SDS011;31619;49.008;12.106;2022-11-20T08:16:37;22.73;;;18.23;;
45905;SDS011;31619;49.008;12.106;2022-11-20T08:19:13;22.65;;;17.20;;
45905;SDS011;31619;49.008;12.106;2022-11-20T08:21:39;24.30;;;17.52;;
45905;SDS011;31619;49.008;12.106;2022-11-20T08:24:06;21.98;;;16.13;;
45905;SDS011;31619;49.008;12.106;2022-11-20T08:26:32;20.38;;;16.42;;
45905;SDS011;31619;49.008;12.106;2022-11-20T08:28:59;22.08;;;16.55;;
45905;SDS011;31619;49.008;12.106;2022-11-20T08:31:25;21.92;;;16.40;;
45905;SDS011;31619;49.008;12.106;2022-11-20T08:33:52;19.33;;;14.90;;
45905;SDS011;31619;49.008;12.106;2022-11-20T08:36:18;22.17;;;16.90;;
45905;SDS011;31619;49.008;12.106;2022-11-20T08:38:48;20.42;;;16.13;;
45905;SDS011;31619;49.008;12.106;2022-11-20T08:41:18;20.13;;;16.05;;
45905;SDS011;31619;49.008;12.106;2022-11-20T08:43:51;18.13;;;15.60;;
45905;SDS011;31619;49.008;12.106;2022-11-20T08:46:18;22.75;;;16.10;;
45905;SDS011;31619;49.008;12.106;2022-11-20T08:48:44;20.80;;;16.40;;
45905;SDS011;31619;49.008;12.106;2022-11-20T08:51:10;22.30;;;15.65;;
45905;SDS011;31619;49.008;12.106;2022-11-20T08:53:37;22.63;;;16.17;;
45905;SDS011;31619;49.008;12.106;2022-11-20T08:56:03;20.70;;;15.85;;
45905;SDS011;31619;49.008;12.106;2022-11-20T08:58:29;17.70;;;15.80;;
45905;SDS011;31619;49.008;12.106;2022-11-20T09:00:54;16.98;;;14.93;;
45905;SDS011;31619;49.008;12.106;2022-11-20T09:03:20;17.67;;;14.13;;
45905;SDS011;31619;49.008;12.106;2022-11-20T09:05:46;17.55;;;14.40;;
45905;SDS011;31619;49.008;12.106;2022-11-20T09:08:12;19.83;;;15.80;;
45905;SDS011;31619;49.008;12.106;2022-11-20T09:10:37;16.30;;;12.65;;
45905;SDS011;31619;49.008;12.106;2022-11-20T09:13:06;16.30;;;13.80;;
45905;SDS011;31619;49.008;12.106;2022-11-20T09:15:32;15.93;;;13.75;;
45905;SDS011;31619;49.008;12.106;2022-11-20T09:18:00;16.83;;;14.32;;
45905;SDS011;31619;49.008;12.106;2022-11-20T09:20:27;16.63;;;14.20;;
45905;SDS011;31619;49.008;12.106;2022-11-20T09:22:54;15.57;;;13.85;;
45905;SDS011;31619;49.008;12.106;2022-11-20T09:25:21;16.75;;;14.05;;
45905;SDS011;31619;49.008;12.106;2022-11-20T09:27:47;15.35;;;13.23;;
45905;SDS011;31619;49.008;12.106;2022-11-20T09:30:13;14.02;;;11.77;;
45905;SDS011;31619;49.008;12.106;2022-11-20T09:32:40;16.15;;;12.77;;
45905;SDS011;31619;49.008;12.106;2022-11-20T09:35:06;14.25;;;11.05;;
45905;SDS011;31619;49.008;12.106;2022-11-20T09:37:32;12.82;;;11.43;;
45905;SDS011;31619;49.008;12.106;2022-11-20T09:39:57;10.00;;;9.00;;
45905;SDS011;31619;49.008;12.106;2022-11-20T09:48:14;4.45;;;4.10;;
45905;SDS011;31619;49.008;12.106;2022-11-20T09:50:56;4.15;;;3.85;;
45905;SDS011;31619;49.008;12.106;2022-11-20T09:53:37;4.50;;;4.10;;
45905;SDS011;31619;49.008;12.106;2022-11-20T09:56:16;4.20;;;3.85;;
45905;SDS011;31619;49.008;12.106;2022-11-20T09:58:57;3.65;;;3.35;;
45905;SDS011;31619;49.008;12.106;2022-11-20T10:01:29;4.57;;;3.92;;
45905;SDS011;31619;49.008;12.106;2022-11-20T10:06:40;5.90;;;5.30;;
45905;SDS011;31619;49.008;12.106;2022-11-20T10:09:25;6.65;;;4.90;;
45905;SDS011;31619;49.008;12.106;2022-11-20T10:15:00;5.68;;;5.22;;
45905;SDS011;31619;49.008;12.106;2022-11-20T10:24:11;5.18;;;4.68;;
45905;SDS011;31619;49.008;12.106;2022-11-20T10:27:03;6.43;;;4.75;;
45905;SDS011;31619;49.008;12.106;2022-11-20T10:29:13;5.40;;;5.00;;
45905;SDS011;31619;49.008;12.106;2022-11-20T10:34:17;5.05;;;4.65;;
45905;SDS011;31619;49.008;12.106;2022-11-20T10:37:08;4.93;;;3.92;;
45905;SDS011;31619;49.008;12.106;2022-11-20T10:39:50;5.65;;;5.25;;
45905;SDS011;31619;49.008;12.106;2022-11-20T10:42:28;4.97;;;3.95;;
45905;SDS011;31619;49.008;12.106;2022-11-20T10:45:20;5.10;;;4.70;;
45905;SDS011;31619;49.008;12.106;2022-11-20T10:47:54;4.55;;;4.05;;
45905;SDS011;31619;49.008;12.106;2022-11-20T10:50:49;4.03;;;3.63;;
45905;SDS011;31619;49.008;12.106;2022-11-20T11:02:15;5.28;;;4.78;;
45905;SDS011;31619;49.008;12.106;2022-11-20T11:04:54;4.80;;;4.40;;
45905;SDS011;31619;49.008;12.106;2022-11-20T11:09:54;5.18;;;4.70;;
45905;SDS011;31619;49.008;12.106;2022-11-20T11:12:21;4.30;;;3.92;;
45905;SDS011;31619;49.008;12.106;2022-11-20T11:14:50;3.78;;;3.47;;
45905;SDS011;31619;49.008;12.106;2022-11-20T11:17:35;5.57;;;4.20;;
45905;SDS011;31619;49.008;12.106;2022-11-20T11:20:05;3.63;;;3.28;;
45905;SDS011;31619;49.008;12.106;2022-11-20T11:22:33;4.90;;;4.50;;
45905;SDS011;31619;49.008;12.106;2022-11-20T11:25:07;2.28;;;2.17;;
45905;SDS011;31619;49.008;12.106;2022-11-20T11:27:49;5.20;;;4.68;;
45905;SDS011;31619;49.008;12.106;2022-11-20T11:30:16;4.00;;;3.75;;
45905;SDS011;31619;49.008;12.106;2022-11-20T11:32:43;4.10;;;3.80;;
45905;SDS011;31619;49.008;12.106;2022-11-20T11:35:26;3.47;;;3.28;;
45905;SDS011;31619;49.008;12.106;2022-11-20T11:37:54;4.60;;;4.30;;
45905;SDS011;31619;49.008;12.106;2022-11-20T11:40:28;4.03;;;3.72;;
45905;SDS011;31619;49.008;12.106;2022-11-20T11:42:57;3.85;;;3.50;;
45905;SDS011;31619;49.008;12.106;2022-11-20T11:45:26;3.28;;;2.90;;
45905;SDS011;31619;49.008;12.106;2022-11-20T11:47:52;4.72;;;3.80;;
45905;SDS011;31619;49.008;12.106;2022-11-20T11:50:21;4.40;;;4.00;;
45905;SDS011;31619;49.008;12.106;2022-11-20T11:58:28;4.25;;;3.88;;
45905;SDS011;31619;49.008;12.106;2022-11-20T12:01:03;3.05;;;2.72;;
45905;SDS011;31619;49.008;12.106;2022-11-20T12:03:37;3.55;;;3.35;;
45905;SDS011;31619;49.008;12.106;2022-11-20T12:06:10;3.03;;;2.80;;
45905;SDS011;31619;49.008;12.106;2022-11-20T12:08:56;3.20;;;2.90;;
45905;SDS011;31619;49.008;12.106;2022-11-20T12:14:21;2.15;;;2.05;;
45905;SDS011;31619;49.008;12.106;2022-11-20T12:16:58;3.30;;;3.00;;
45905;SDS011;31619;49.008;12.106;2022-11-20T12:19:26;3.13;;;2.83;;
45905;SDS011;31619;49.008;12.106;2022-11-20T12:22:05;2.70;;;2.50;;
45905;SDS011;31619;49.008;12.106;2022-11-20T12:39:56;3.05;;;2.67;;
45905;SDS011;31619;49.008;12.106;2022-11-20T12:42:42;2.83;;;2.63;;
45905;SDS011;31619;49.008;12.106;2022-11-20T12:51:21;3.38;;;3.17;;
45905;SDS011;31619;49.008;12.106;2022-11-20T12:57:21;2.35;;;2.25;;
45905;SDS011;31619;49.008;12.106;2022-11-20T13:02:25;3.55;;;2.45;;
45905;SDS011;31619;49.008;12.106;2022-11-20T13:05:01;3.20;;;3.00;;
45905;SDS011;31619;49.008;12.106;2022-11-20T13:07:31;2.47;;;2.38;;
45905;SDS011;31619;49.008;12.106;2022-11-20T13:09:57;2.63;;;2.50;;
45905;SDS011;31619;49.008;12.106;2022-11-20T13:12:28;2.45;;;1.92;;
45905;SDS011;31619;49.008;12.106;2022-11-20T13:17:55;1.95;;;1.85;;
45905;SDS011;31619;49.008;12.106;2022-11-20T13:20:24;4.43;;;2.80;;
45905;SDS011;31619;49.008;12.106;2022-11-20T13:22:51;3.55;;;2.75;;
45905;SDS011;31619;49.008;12.106;2022-11-20T13:25:27;2.30;;;2.10;;
45905;SDS011;31619;49.008;12.106;2022-11-20T13:27:55;2.00;;;1.90;;
45905;SDS011;31619;49.008;12.106;2022-11-20T13:30:23;2.33;;;2.22;;
45905;SDS011;31619;49.008;12.106;2022-11-20T13:33:36;2.20;;;2.10;;
45905;SDS011;31619;49.008;12.106;2022-11-20T13:35:57;2.50;;;2.40;;
45905;SDS011;31619;49.008;12.106;2022-11-20T13:38:27;2.10;;;2.00;;
45905;SDS011;31619;49.008;12.106;2022-11-20T13:41:07;2.03;;;1.92;;
45905;SDS011;31619;49.008;12.106;2022-11-20T13:43:52;1.98;;;1.80;;
45905;SDS011;31619;49.008;12.106;2022-11-20T13:46:18;2.70;;;2.55;;
45905;SDS011;31619;49.008;12.106;2022-11-20T13:48:49;3.55;;;2.50;;
45905;SDS011;31619;49.008;12.106;2022-11-20T13:54:14;2.60;;;2.40;;
45905;SDS011;31619;49.008;12.106;2022-11-20T14:02:39;3.45;;;3.25;;
45905;SDS011;31619;49.008;12.106;2022-11-20T14:05:06;2.90;;;2.67;;
45905;SDS011;31619;49.008;12.106;2022-11-20T14:07:43;5.05;;;4.65;;
45905;SDS011;31619;49.008;12.106;2022-11-20T14:10:19;3.85;;;3.55;;
45905;SDS011;31619;49.008;12.106;2022-11-20T14:12:45;2.80;;;2.60;;
45905;SDS011;31619;49.008;12.106;2022-11-20T14:15:30;3.63;;;3.30;;
45905;SDS011;31619;49.008;12.106;2022-11-20T14:17:59;3.50;;;3.20;;
45905;SDS011;31619;49.008;12.106;2022-11-20T14:20:40;4.15;;;3.25;;
45905;SDS011;31619;49.008;12.106;2022-11-20T14:23:07;3.33;;;3.13;;
45905;SDS011;31619;49.008;12.106;2022-11-20T14:25:35;4.10;;;3.70;;
45905;SDS011;31619;49.008;12.106;2022-11-20T14:28:01;4.25;;;3.90;;
45905;SDS011;31619;49.008;12.106;2022-11-20T14:30:44;3.63;;;3.35;;
45905;SDS011;31619;49.008;12.106;2022-11-20T14:33:12;3.58;;;3.13;;
45905;SDS011;31619;49.008;12.106;2022-11-20T14:35:46;3.38;;;3.10;;
45905;SDS011;31619;49.008;12.106;2022-11-20T14:38:14;4.72;;;3.10;;
45905;SDS011;31619;49.008;12.106;2022-11-20T14:40:42;4.22;;;3.58;;
45905;SDS011;31619;49.008;12.106;2022-11-20T14:43:27;4.05;;;3.55;;
45905;SDS011;31619;49.008;12.106;2022-11-20T14:45:58;4.05;;;3.63;;
45905;SDS011;31619;49.008;12.106;2022-11-20T14:48:39;4.50;;;4.10;;
45905;SDS011;31619;49.008;12.106;2022-11-20T14:51:11;4.05;;;3.75;;
45905;SDS011;31619;49.008;12.106;2022-11-20T14:53:48;4.03;;;3.72;;
45905;SDS011;31619;49.008;12.106;2022-11-20T14:56:13;4.05;;;3.72;;
45905;SDS011;31619;49.008;12.106;2022-11-20T14:58:55;4.38;;;4.00;;
45905;SDS011;31619;49.008;12.106;2022-11-20T15:01:27;4.07;;;3.78;;
45905;SDS011;31619;49.008;12.106;2022-11-20T15:04:08;3.95;;;3.70;;
45905;SDS011;31619;49.008;12.106;2022-11-20T15:06:36;4.03;;;3.72;;
45905;SDS011;31619;49.008;12.106;2022-11-20T15:09:17;3.88;;;3.50;;
45905;SDS011;31619;49.008;12.106;2022-11-20T15:11:51;4.20;;;3.75;;
45905;SDS011;31619;49.008;12.106;2022-11-20T15:14:17;3.53;;;3.33;;
45905;SDS011;31619;49.008;12.106;2022-11-20T15:16:43;3.42;;;3.22;;
45905;SDS011;31619;49.008;12.106;2022-11-20T15:19:13;4.70;;;3.55;;
45905;SDS011;31619;49.008;12.106;2022-11-20T15:21:43;2.97;;;2.78;;
45905;SDS011;31619;49.008;12.106;2022-11-20T15:24:09;2.40;;;2.30;;
45905;SDS011;31619;49.008;12.106;2022-11-20T15:26:35;2.97;;;2.83;;
45905;SDS011;31619;49.008;12.106;2022-11-20T15:29:02;2.40;;;2.30;;
45905;SDS011;31619;49.008;12.106;2022-11-20T15:31:29;2.95;;;2.75;;
45905;SDS011;31619;49.008;12.106;2022-11-20T15:33:54;2.95;;;2.75;;
45905;SDS011;31619;49.008;12.106;2022-11-20T15:36:20;3.53;;;2.17;;
45905;SDS011;31619;49.008;12.106;2022-11-20T15:38:46;3.13;;;2.92;;
45905;SDS011;31619;49.008;12.106;2022-11-20T15:41:11;2.63;;;2.42;;
45905;SDS011;31619;49.008;12.106;2022-11-20T15:43:37;2.70;;;2.50;;
45905;SDS011;31619;49.008;12.106;2022-11-20T15:46:05;3.25;;;2.83;;
45905;SDS011;31619;49.008;12.106;2022-11-20T15:48:36;2.58;;;2.47;;
45905;SDS011;31619;49.008;12.106;2022-11-20T15:51:14;2.30;;;2.10;;
45905;SDS011;31619;49.008;12.106;2022-11-20T15:53:56;2.67;;;2.42;;
45905;SDS011;31619;49.008;12.106;2022-11-20T15:56:22;2.80;;;2.60;;
45905;SDS011;31619;49.008;12.106;2022-11-20T15:58:48;3.20;;;3.00;;